createdAt,value
2022-10-24T00:00:59.815Z,13.11
2022-10-24T00:04:07.605Z,13.11
2022-10-24T00:07:15.277Z,13.09
2022-10-24T00:10:23.449Z,13.07
2022-10-24T00:13:30.749Z,13.09
2022-10-24T00:16:38.921Z,13.03
2022-10-24T00:19:46.954Z,12.95
2022-10-24T00:22:54.211Z,12.92
2022-10-24T00:26:02.387Z,12.92
2022-10-24T00:29:10.256Z,12.89
2022-10-24T00:32:17.541Z,12.92
2022-10-24T00:35:26.486Z,12.92
2022-10-24T00:38:34.198Z,12.92
2022-10-24T00:41:41.904Z,12.92
2022-10-24T00:44:50.079Z,12.95
2022-10-24T00:47:57.837Z,13.03
2022-10-24T00:51:05.460Z,13.09
2022-10-24T00:54:13.345Z,13.04
2022-10-24T00:57:21.158Z,12.96
2022-10-24T01:00:28.819Z,12.95
2022-10-24T01:03:36.471Z,12.92
2022-10-24T01:06:44.291Z,12.82
2022-10-24T01:09:52.062Z,12.78
2022-10-24T01:12:59.546Z,12.77
2022-10-24T01:16:07.481Z,12.81
2022-10-24T01:19:14.734Z,12.87
2022-10-24T01:22:22.406Z,12.88
2022-10-24T01:25:30.488Z,12.87
2022-10-24T01:28:37.793Z,12.81
2022-10-24T01:31:45.716Z,12.79
2022-10-24T01:34:53.817Z,12.71
2022-10-24T01:38:01.190Z,12.70
2022-10-24T01:41:09.267Z,12.92
2022-10-24T01:44:17.460Z,13.07
2022-10-24T01:47:24.794Z,13.11
2022-10-24T01:50:32.971Z,13.11
2022-10-24T01:53:41.048Z,13.04
2022-10-24T01:56:48.347Z,12.95
2022-10-24T01:59:56.442Z,12.84
2022-10-24T02:03:04.133Z,12.71
2022-10-24T02:06:11.952Z,12.71
2022-10-24T02:09:20.112Z,12.71
2022-10-24T02:12:27.896Z,12.78
2022-10-24T02:15:35.400Z,12.77
2022-10-24T02:18:43.250Z,12.78
2022-10-24T02:21:51.528Z,12.79
2022-10-24T02:24:59.242Z,12.81
2022-10-24T02:28:07.009Z,12.81
2022-10-24T02:31:15.151Z,12.77
2022-10-24T02:34:23.160Z,12.75
2022-10-24T02:37:30.362Z,12.75
2022-10-24T02:40:38.295Z,12.69
2022-10-24T02:43:45.502Z,12.63
2022-10-24T02:46:53.556Z,12.59
2022-10-24T02:50:01.442Z,12.54
2022-10-24T02:53:08.606Z,12.42
2022-10-24T02:56:16.445Z,12.31
2022-10-24T02:59:24.639Z,12.24
2022-10-24T03:02:31.808Z,12.23
2022-10-24T03:05:39.732Z,12.20
2022-10-24T03:08:47.638Z,12.16
2022-10-24T03:11:55.382Z,12.11
2022-10-24T03:15:03.302Z,12.06
2022-10-24T03:18:11.119Z,11.99
2022-10-24T03:21:18.843Z,11.93
2022-10-24T03:24:37.153Z,11.93
2022-10-24T03:27:31.495Z,11.89
2022-10-24T03:30:39.165Z,11.85
2022-10-24T03:33:47.326Z,11.77
2022-10-24T03:36:55.088Z,11.75
2022-10-24T03:40:02.765Z,11.71
2022-10-24T03:43:10.509Z,11.70
2022-10-24T03:46:18.627Z,11.70
2022-10-24T03:49:26.258Z,11.67
2022-10-24T03:52:33.795Z,11.59
2022-10-24T03:55:41.871Z,11.50
2022-10-24T03:58:49.494Z,11.54
2022-10-24T04:01:57.217Z,11.59
2022-10-24T04:05:05.185Z,11.61
2022-10-24T04:08:12.454Z,11.61
2022-10-24T04:11:20.484Z,11.70
2022-10-24T04:14:28.572Z,11.89
2022-10-24T04:17:35.884Z,12.06
2022-10-24T04:20:43.959Z,12.09
2022-10-24T04:23:52.062Z,12.11
2022-10-24T04:26:59.314Z,12.15
2022-10-24T04:30:07.389Z,12.16
2022-10-24T04:33:15.570Z,12.16
2022-10-24T04:36:22.913Z,12.15
2022-10-24T04:39:30.910Z,12.11
2022-10-24T04:42:38.621Z,12.09
2022-10-24T04:45:46.195Z,12.13
2022-10-24T04:48:54.083Z,12.20
2022-10-24T04:52:01.995Z,12.30
2022-10-24T04:55:09.683Z,12.31
2022-10-24T04:58:18.115Z,12.24
2022-10-24T05:01:26.174Z,12.19
2022-10-24T05:04:33.924Z,12.19
2022-10-24T05:07:42.527Z,12.13
2022-10-24T05:10:50.430Z,12.19
2022-10-24T05:13:58.383Z,12.19
2022-10-24T05:17:06.145Z,12.24
2022-10-24T05:20:14.207Z,12.26
2022-10-24T05:23:21.975Z,12.38
2022-10-24T05:26:29.608Z,12.44
2022-10-24T05:29:37.331Z,12.54
2022-10-24T05:32:45.457Z,12.62
2022-10-24T05:35:53.489Z,12.69
2022-10-24T05:39:01.429Z,12.75
2022-10-24T05:42:09.335Z,12.77
2022-10-24T05:45:17.531Z,12.82
2022-10-24T05:48:25.360Z,12.81
2022-10-24T05:51:32.730Z,12.84
2022-10-24T05:54:55.121Z,12.84
2022-10-24T05:57:46.055Z,12.85
2022-10-24T06:00:54.318Z,12.92
2022-10-24T06:04:02.546Z,12.88
2022-10-24T06:07:10.395Z,12.88
2022-10-24T06:10:17.876Z,12.87
2022-10-24T06:13:25.895Z,12.88
2022-10-24T06:16:33.160Z,12.99
2022-10-24T06:19:41.253Z,13.03
2022-10-24T06:22:49.368Z,13.11
2022-10-24T06:25:56.728Z,13.20
2022-10-24T06:29:04.820Z,13.22
2022-10-24T06:32:13.123Z,13.32
2022-10-24T06:35:20.493Z,13.40
2022-10-24T06:38:28.597Z,13.47
2022-10-24T06:41:36.266Z,13.47
2022-10-24T06:44:43.514Z,13.55
2022-10-24T06:47:54.050Z,13.58
2022-10-24T06:50:51.574Z,13.67
2022-10-24T06:53:59.176Z,13.71
2022-10-24T06:57:07.251Z,13.73
2022-10-24T07:00:15.021Z,13.77
2022-10-24T07:03:22.814Z,13.80
2022-10-24T07:06:30.735Z,13.87
2022-10-24T07:09:38.726Z,13.88
2022-10-24T07:12:46.670Z,13.95
2022-10-24T07:15:54.657Z,13.99
2022-10-24T07:19:02.801Z,14.09
2022-10-24T07:22:10.551Z,14.13
2022-10-24T07:25:18.367Z,14.21
2022-10-24T07:28:26.405Z,14.27
2022-10-24T07:31:33.834Z,14.25
2022-10-24T07:34:41.696Z,14.27
2022-10-24T07:37:49.390Z,14.31
2022-10-24T07:40:56.651Z,14.34
2022-10-24T07:44:04.712Z,14.39
2022-10-24T07:47:12.197Z,14.49
2022-10-24T07:50:19.537Z,14.62
2022-10-24T07:53:27.561Z,14.80
2022-10-24T07:56:35.260Z,15.02
2022-10-24T07:59:43.029Z,15.17
2022-10-24T08:02:51.150Z,15.42
2022-10-24T08:05:59.312Z,15.66
2022-10-24T08:09:06.662Z,15.86
2022-10-24T08:12:14.745Z,15.96
2022-10-24T08:15:22.530Z,16.14
2022-10-24T08:18:30.681Z,16.16
2022-10-24T08:21:38.984Z,16.18
2022-10-24T08:24:46.882Z,16.20
2022-10-24T08:27:54.566Z,16.16
2022-10-24T08:31:02.572Z,16.18
2022-10-24T08:34:12.525Z,16.26
2022-10-24T08:37:20.264Z,16.38
2022-10-24T08:40:27.985Z,16.42
2022-10-24T08:43:35.868Z,16.52
2022-10-24T08:46:43.506Z,16.58
2022-10-24T08:49:51.229Z,16.70
2022-10-24T08:52:59.161Z,16.85
2022-10-24T08:56:06.860Z,16.96
2022-10-24T08:59:14.649Z,17.07
2022-10-24T09:02:23.208Z,17.14
2022-10-24T09:05:31.018Z,17.20
2022-10-24T09:08:39.413Z,17.25
2022-10-24T09:11:47.655Z,17.33
2022-10-24T09:14:55.407Z,17.38
2022-10-24T09:18:03.967Z,17.43
2022-10-24T09:21:12.105Z,17.62
2022-10-24T09:24:19.661Z,17.64
2022-10-24T09:27:27.910Z,17.64
2022-10-24T09:30:35.411Z,17.67
2022-10-24T09:33:43.654Z,17.71
2022-10-24T09:36:51.936Z,17.71
2022-10-24T09:39:59.487Z,17.74
2022-10-24T09:43:07.881Z,17.76
2022-10-24T09:46:16.199Z,17.74
2022-10-24T09:49:24.135Z,17.76
2022-10-24T09:52:32.077Z,17.73
2022-10-24T09:55:39.927Z,17.73
2022-10-24T09:58:48.117Z,17.76
2022-10-24T10:01:56.109Z,17.79
2022-10-24T10:05:03.923Z,17.95
2022-10-24T10:08:11.845Z,18.02
2022-10-24T10:11:19.819Z,18.03
2022-10-24T10:14:27.884Z,18.07
2022-10-24T10:17:36.477Z,18.12
2022-10-24T10:20:44.161Z,18.21
2022-10-24T10:23:52.468Z,18.31
2022-10-24T10:27:00.560Z,18.36
2022-10-24T10:30:08.563Z,18.40
2022-10-24T10:33:17.018Z,18.49
2022-10-24T10:36:25.004Z,18.52
2022-10-24T10:39:33.019Z,18.59
2022-10-24T10:42:41.385Z,18.74
2022-10-24T10:45:49.439Z,18.82
2022-10-24T10:48:57.497Z,18.84
2022-10-24T10:52:05.943Z,18.87
2022-10-24T10:55:13.706Z,18.98
2022-10-24T10:58:21.918Z,19.11
2022-10-24T11:01:30.343Z,19.11
2022-10-24T11:04:38.083Z,19.15
2022-10-24T11:07:46.775Z,19.23
2022-10-24T11:10:55.240Z,19.29
2022-10-24T11:14:03.273Z,19.29
2022-10-24T11:17:11.788Z,19.36
2022-10-24T11:20:19.485Z,19.48
2022-10-24T11:23:27.670Z,19.51
2022-10-24T11:26:36.357Z,19.57
2022-10-24T11:29:44.492Z,19.61
2022-10-24T11:32:52.683Z,19.58
2022-10-24T11:36:00.661Z,19.70
2022-10-24T11:39:08.652Z,19.69
2022-10-24T11:42:16.773Z,19.58
2022-10-24T11:45:24.965Z,19.48
2022-10-24T11:48:33.396Z,19.39
2022-10-24T11:51:41.388Z,19.35
2022-10-24T11:54:49.334Z,19.31
2022-10-24T11:57:57.721Z,19.25
2022-10-24T12:01:05.824Z,19.23
2022-10-24T12:04:13.424Z,19.06
2022-10-24T12:07:21.795Z,18.94
2022-10-24T12:10:29.510Z,18.99
2022-10-24T12:13:38.055Z,18.99
2022-10-24T12:16:46.585Z,19.11
2022-10-24T12:19:54.278Z,19.36
2022-10-24T12:23:02.661Z,19.66
2022-10-24T12:26:10.753Z,19.95
2022-10-24T12:29:19.127Z,20.12
2022-10-24T12:32:27.366Z,20.08
2022-10-24T12:35:35.336Z,20.09
2022-10-24T12:38:43.702Z,20.10
2022-10-24T12:41:51.578Z,20.06
2022-10-24T12:44:59.406Z,20.03
2022-10-24T12:48:07.658Z,20.13
2022-10-24T12:51:15.581Z,20.33
2022-10-24T12:54:23.692Z,20.13
2022-10-24T12:57:32.282Z,19.87
2022-10-24T13:00:40.086Z,19.79
2022-10-24T13:03:48.174Z,19.78
2022-10-24T13:06:56.595Z,19.75
2022-10-24T13:10:04.036Z,19.65
2022-10-24T13:13:12.066Z,19.48
2022-10-24T13:16:20.331Z,19.32
2022-10-24T13:19:27.672Z,19.33
2022-10-24T13:22:35.903Z,19.40
2022-10-24T13:25:43.692Z,19.42
2022-10-24T13:28:51.121Z,19.38
2022-10-24T13:31:59.395Z,19.35
2022-10-24T13:35:07.170Z,19.31
2022-10-24T13:38:14.846Z,19.25
2022-10-24T13:41:22.618Z,19.25
2022-10-24T13:44:30.440Z,19.29
2022-10-24T13:47:38.225Z,19.38
2022-10-24T13:50:45.775Z,19.43
2022-10-24T13:53:53.507Z,19.32
2022-10-24T13:57:02.337Z,19.23
2022-10-24T14:00:10.265Z,19.13
2022-10-24T14:03:17.990Z,19.13
2022-10-24T14:06:25.678Z,19.14
2022-10-24T14:09:33.743Z,19.15
2022-10-24T14:12:41.437Z,19.11
2022-10-24T14:15:49.253Z,19.05
2022-10-24T14:18:57.260Z,18.94
2022-10-24T14:22:05.338Z,18.86
2022-10-24T14:25:13.462Z,18.79
2022-10-24T14:28:21.822Z,18.79
2022-10-24T14:31:29.768Z,18.76
2022-10-24T14:34:37.635Z,18.68
2022-10-24T14:37:48.255Z,18.62
2022-10-24T14:41:07.956Z,18.59
2022-10-24T14:44:01.381Z,18.54
2022-10-24T14:47:09.409Z,18.47
2022-10-24T14:50:16.759Z,18.42
2022-10-24T14:53:25.110Z,18.39
2022-10-24T14:56:33.635Z,18.34
2022-10-24T14:59:41.223Z,18.24
2022-10-24T15:02:50.115Z,18.19
2022-10-24T15:05:57.937Z,18.18
2022-10-24T15:09:06.226Z,17.92
2022-10-24T15:12:14.583Z,17.35
2022-10-24T15:15:23.634Z,16.93
2022-10-24T15:18:31.485Z,16.68
2022-10-24T15:21:40.930Z,16.52
2022-10-24T15:24:48.772Z,16.44
2022-10-24T15:27:56.564Z,16.38
2022-10-24T15:31:04.334Z,16.34
2022-10-24T15:34:12.629Z,16.18
2022-10-24T15:37:20.546Z,16.07
2022-10-24T15:40:28.185Z,16.03
2022-10-24T15:43:36.583Z,15.96
2022-10-24T15:46:44.487Z,15.78
2022-10-24T15:49:52.381Z,15.72
2022-10-24T15:53:00.422Z,15.63
2022-10-24T15:56:08.057Z,15.60
2022-10-24T15:59:15.914Z,15.56
2022-10-24T16:02:24.644Z,15.43
2022-10-24T16:05:32.122Z,15.41
2022-10-24T16:08:41.946Z,15.46
2022-10-24T16:11:50.159Z,15.51
2022-10-24T16:15:00.657Z,15.60
2022-10-24T16:18:09.191Z,15.64
2022-10-24T16:21:17.660Z,15.81
2022-10-24T16:24:25.472Z,15.93
2022-10-24T16:27:33.736Z,16.04
2022-10-24T16:30:41.516Z,16.18
2022-10-24T16:33:49.328Z,16.26
2022-10-24T16:36:57.685Z,16.23
2022-10-24T16:40:05.409Z,16.15
2022-10-24T16:43:13.309Z,16.07
2022-10-24T16:46:21.087Z,16.04
2022-10-24T16:49:29.181Z,16.00
2022-10-24T16:52:37.366Z,15.99
2022-10-24T16:55:44.938Z,15.92
2022-10-24T16:58:53.392Z,15.88
2022-10-24T17:02:02.012Z,15.84
2022-10-24T17:05:09.774Z,15.78
2022-10-24T17:08:18.145Z,15.63
2022-10-24T17:11:44.420Z,15.48
2022-10-24T17:14:30.969Z,15.42
2022-10-24T17:17:38.809Z,15.30
2022-10-24T17:20:46.402Z,15.21
2022-10-24T17:23:54.573Z,15.17
2022-10-24T17:27:02.499Z,15.09
2022-10-24T17:30:10.126Z,14.99
2022-10-24T17:33:18.252Z,14.95
2022-10-24T17:36:25.847Z,14.90
2022-10-24T17:39:34.079Z,14.75
2022-10-24T17:42:42.174Z,14.67
2022-10-24T17:45:49.778Z,14.62
2022-10-24T17:48:58.290Z,14.61
2022-10-24T17:52:05.978Z,14.61
2022-10-24T17:55:22.267Z,14.57
2022-10-24T17:58:18.431Z,14.54
2022-10-24T18:01:25.825Z,14.50
2022-10-24T18:04:34.000Z,14.47
2022-10-24T18:07:42.145Z,14.43
2022-10-24T18:10:49.592Z,14.43
2022-10-24T18:13:57.694Z,14.42
2022-10-24T18:17:05.971Z,14.37
2022-10-24T18:20:13.348Z,14.35
2022-10-24T18:23:21.401Z,14.35
2022-10-24T18:26:29.224Z,14.43
2022-10-24T18:29:37.007Z,14.49
2022-10-24T18:32:45.360Z,14.53
2022-10-24T18:35:53.180Z,14.57
2022-10-24T18:39:00.920Z,14.65
2022-10-24T18:42:08.796Z,14.69
2022-10-24T18:45:16.463Z,14.69
2022-10-24T18:48:24.239Z,14.71
2022-10-24T18:51:32.420Z,14.72
2022-10-24T18:54:40.276Z,14.72
2022-10-24T18:57:48.465Z,14.67
2022-10-24T19:00:56.486Z,14.57
2022-10-24T19:04:04.401Z,14.47
2022-10-24T19:07:12.025Z,14.38
2022-10-24T19:10:19.778Z,14.25
2022-10-24T19:13:27.974Z,14.13
2022-10-24T19:16:35.563Z,13.99
2022-10-24T19:19:43.139Z,13.91
2022-10-24T19:22:51.238Z,13.80
2022-10-24T19:25:58.746Z,13.71
2022-10-24T19:29:06.884Z,13.71
2022-10-24T19:32:14.527Z,13.73
2022-10-24T19:35:21.859Z,13.73
2022-10-24T19:38:29.860Z,13.76
2022-10-24T19:41:37.598Z,13.88
2022-10-24T19:44:45.295Z,13.89
2022-10-24T19:47:53.272Z,13.92
2022-10-24T19:51:01.070Z,13.98
2022-10-24T19:54:08.787Z,14.02
2022-10-24T19:57:16.909Z,14.07
2022-10-24T20:00:24.138Z,14.25
2022-10-24T20:03:32.129Z,14.42
2022-10-24T20:06:40.262Z,14.49
2022-10-24T20:09:47.648Z,14.54
2022-10-24T20:12:55.779Z,14.62
2022-10-24T20:16:03.452Z,14.65
2022-10-24T20:19:11.302Z,14.62
2022-10-24T20:22:19.475Z,14.60
2022-10-24T20:25:27.971Z,14.53
2022-10-24T20:28:35.540Z,14.52
2022-10-24T20:31:44.924Z,14.57
2022-10-24T20:34:52.814Z,14.60
2022-10-24T20:38:00.905Z,14.56
2022-10-24T20:41:08.648Z,14.53
2022-10-24T20:44:16.086Z,14.54
2022-10-24T20:47:23.927Z,14.62
2022-10-24T20:50:31.652Z,14.67
2022-10-24T20:53:39.429Z,14.67
2022-10-24T20:56:47.459Z,14.71
2022-10-24T20:59:55.055Z,14.71
2022-10-24T21:03:02.930Z,14.68
2022-10-24T21:06:10.645Z,14.61
2022-10-24T21:09:18.855Z,14.49
2022-10-24T21:12:26.618Z,14.37
2022-10-24T21:15:34.237Z,14.31
2022-10-24T21:18:42.665Z,14.19
2022-10-24T21:21:50.245Z,14.07
2022-10-24T21:24:58.039Z,14.01
2022-10-24T21:28:05.638Z,13.92
2022-10-24T21:31:12.812Z,13.89
2022-10-24T21:34:20.711Z,13.83
2022-10-24T21:37:28.415Z,13.77
2022-10-24T21:40:35.612Z,13.77
2022-10-24T21:43:43.663Z,13.77
2022-10-24T21:46:51.135Z,13.77
2022-10-24T21:49:58.698Z,13.77
2022-10-24T21:53:07.179Z,13.79
2022-10-24T21:56:14.894Z,13.80
2022-10-24T21:59:22.665Z,13.88
2022-10-24T22:02:30.743Z,13.92
2022-10-24T22:05:38.397Z,13.98
2022-10-24T22:08:46.112Z,14.12
2022-10-24T22:11:53.780Z,14.37
2022-10-24T22:15:01.943Z,14.44
2022-10-24T22:18:09.532Z,14.38
2022-10-24T22:21:16.913Z,14.28
2022-10-24T22:24:24.936Z,14.17
2022-10-24T22:27:32.455Z,14.14
2022-10-24T22:30:40.136Z,14.10
2022-10-24T22:33:48.085Z,14.01
2022-10-24T22:36:55.265Z,13.95
2022-10-24T22:40:03.266Z,13.88
2022-10-24T22:43:11.461Z,13.81
2022-10-24T22:46:18.754Z,13.74
2022-10-24T22:49:26.977Z,13.69
2022-10-24T22:52:34.942Z,13.62
2022-10-24T22:55:42.271Z,13.59
2022-10-24T22:58:50.215Z,13.56
2022-10-24T23:01:57.819Z,13.52
2022-10-24T23:05:05.654Z,13.51
2022-10-24T23:08:13.667Z,13.47
2022-10-24T23:11:21.658Z,13.46
2022-10-24T23:14:29.604Z,13.44
2022-10-24T23:17:37.844Z,13.46
2022-10-24T23:20:45.529Z,13.46
2022-10-24T23:34:26.395Z,13.49
2022-10-24T23:37:34.284Z,13.46
2022-10-24T23:40:42.218Z,13.46
2022-10-24T23:43:49.493Z,13.49
2022-10-24T23:46:56.573Z,13.54
2022-10-24T23:50:04.070Z,13.55
2022-10-24T23:53:11.081Z,13.56
2022-10-24T23:56:18.122Z,13.55
2022-10-24T23:59:25.534Z,13.54
